Time;durP1;ratioP1;P1;durP2;ratioP2;P2;SDS_P1;SDS_P2;PMS_P1;PMS_P2;Temp;Humidity;BMP_temperature;BMP_pressure;BME280_temperature;BME280_humidity;BME280_pressure;Samples;Min_cycle;Max_cycle;Signal;HPM_P1;HPM_P2
2022/12/11 00:01:03;;;;;;;;;;;;;;;;;;5032605;28;19913;-81
2022/12/11 00:03:50;;;;;;;;;;;;;;;;;;5040101;28;19913;-79
2022/12/11 00:06:37;;;;;;;;;;;;;;;;;;5044038;28;19924;-79
2022/12/11 00:09:23;;;;;;;;;;;;;;;;;;5037246;28;19916;-80
2022/12/11 00:12:10;;;;;;;;;;;;;;;;;;5052221;28;19913;-79
2022/12/11 00:14:56;;;;;;;;;;;;;;;;;;5038507;28;20450;-79
2022/12/11 00:17:43;;;;;;;;;;;;;;;;;;5042516;28;19913;-79
2022/12/11 00:20:29;;;;;;;;;;;;;;;;;;5042944;28;19908;-77
2022/12/11 00:23:16;;;;;;;;;;;;;;;;;;5058824;28;19913;-79
2022/12/11 00:26:02;;;;;;;;;;;;;;;;;;5038366;28;19932;-79
2022/12/11 00:28:49;;;;;;;;;;;;;;;;;;5032514;28;19909;-78
2022/12/11 00:31:35;;;;;;;;;;;;;;;;;;5019736;28;19924;-77
2022/12/11 00:34:22;;;;;;;;;;;;;;;;;;5035542;28;19913;-80
2022/12/11 00:37:08;;;;;;;;;;;;;;;;;;5031519;28;20376;-80
2022/12/11 00:39:55;;;;;;;;;;;;;;;;;;5039490;28;19909;-79
2022/12/11 00:42:41;;;;;;;;;;;;;;;;;;5032883;28;19912;-77
2022/12/11 00:45:28;;;;;;;;;;;;;;;;;;5040338;28;19920;-78
2022/12/11 00:48:14;;;;;;;;;;;;;;;;;;5022521;28;20308;-77
2022/12/11 00:51:01;;;;;;;;;;;;;;;;;;5040290;28;19920;-78
2022/12/11 00:53:47;;;;;;;;;;;;;;;;;;5046958;28;19919;-77
2022/12/11 00:56:34;;;;;;;;;;;;;;;;;;5043658;28;19913;-79
2022/12/11 00:59:20;;;;;;;;;;;;;;;;;;5034524;28;19909;-79
2022/12/11 01:02:07;;;;;;;;;;;;;;;;;;5043873;28;19917;-80
2022/12/11 01:04:53;;;;;;;;;;;;;;;;;;5019194;28;19913;-78
2022/12/11 01:07:40;;;;;;;;;;;;;;;;;;5049085;28;19951;-80
2022/12/11 01:10:26;;;;;;;;;;;;;;;;;;5043061;28;20611;-79
2022/12/11 01:13:13;;;;;;;;;;;;;;;;;;5038999;28;20386;-79
2022/12/11 01:15:59;;;;;;;;;;;;;;;;;;5032694;28;19917;-77
2022/12/11 01:18:45;;;;;;;;;;;;;;;;;;5018720;28;19909;-78
2022/12/11 01:21:32;;;;;;;;;;;;;;;;;;5037129;28;19921;-78
2022/12/11 01:24:18;;;;;;;;;;;;;;;;;;5030053;28;19921;-78
2022/12/11 01:27:05;;;;;;;;;;;;;;;;;;5038078;28;19968;-80
2022/12/11 01:29:51;;;;;;;;;;;;;;;;;;5038811;28;19912;-78
2022/12/11 01:32:38;;;;;;;;;;;;;;;;;;5039883;28;19919;-80
2022/12/11 01:35:25;;;;;;;;;;;;;;;;;;5047418;28;19909;-81
2022/12/11 01:38:11;;;;;;;;;;;;;;;;;;5043885;28;19913;-79
2022/12/11 01:40:58;;;;;;;;;;;;;;;;;;5023650;28;19924;-78
2022/12/11 01:43:44;;;;;;;;;;;;;;;;;;5037145;28;19914;-79
2022/12/11 01:46:31;;;;;;;;;;;;;;;;;;5038787;28;19932;-79
2022/12/11 01:49:17;;;;;;;;;;;;;;;;;;5041727;28;19913;-80
2022/12/11 01:52:04;;;;;;;;;;;;;;;;;;5033553;28;19924;-80
2022/12/11 01:54:50;;;;;;;;;;;;;;;;;;5045340;28;19909;-79
2022/12/11 01:57:37;;;;;;;;;;;;;;;;;;5038427;28;19913;-80
2022/12/11 02:00:23;;;;;;;;;;;;;;;;;;5044053;28;20276;-79
2022/12/11 02:03:10;;;;;;;;;;;;;;;;;;5030459;28;19925;-79
2022/12/11 02:05:56;;;;;;;;;;;;;;;;;;5039891;28;19959;-79
2022/12/11 02:08:43;;;;;;;;;;;;;;;;;;5038831;28;20369;-79
2022/12/11 02:11:29;;;;;;;;;;;;;;;;;;5035586;28;19923;-80
2022/12/11 02:14:16;;;;;;;;;;;;;;;;;;5034502;28;20388;-78
2022/12/11 02:17:02;;;;;;;;;;;;;;;;;;5028591;28;19924;-78
2022/12/11 02:19:49;;;;;;;;;;;;;;;;;;5030261;28;19910;-79
2022/12/11 02:22:35;;;;;;;;;;;;;;;;;;5036968;28;19923;-79
2022/12/11 02:25:22;;;;;;;;;;;;;;;;;;5032005;28;19939;-80
2022/12/11 02:28:08;;;;;;;;;;;;;;;;;;5041431;28;19928;-79
2022/12/11 02:30:55;;;;;;;;;;;;;;;;;;5042397;28;19913;-78
2022/12/11 02:33:41;;;;;;;;;;;;;;;;;;5035516;28;19913;-79
2022/12/11 02:36:28;;;;;;;;;;;;;;;;;;5040520;28;20266;-78
2022/12/11 02:39:14;;;;;;;;;;;;;;;;;;5046075;28;19920;-79
2022/12/11 02:42:01;;;;;;;;;;;;;;;;;;5042136;28;19929;-78
2022/12/11 02:44:47;;;;;;;;;;;;;;;;;;5045171;28;19935;-79
2022/12/11 02:47:34;;;;;;;;;;;;;;;;;;5038610;28;20722;-80
2022/12/11 02:50:20;;;;;;;;;;;;;;;;;;5043618;28;20083;-79
2022/12/11 02:53:07;;;;;;;;;;;;;;;;;;5037555;28;19920;-78
2022/12/11 02:55:54;;;;;;;;;;;;;;;;;;5038144;28;19913;-79
2022/12/11 02:58:40;;;;;;;;;;;;;;;;;;5052984;28;19916;-80
2022/12/11 03:01:27;;;;;;;;;;;;;;;;;;5044240;28;19913;-78
2022/12/11 03:04:13;;;;;;;;;;;;;;;;;;5041492;28;19935;-79
2022/12/11 03:07:00;;;;;;;;;;;;;;;;;;5045500;28;19927;-78
2022/12/11 03:09:47;;;;;;;;;;;;;;;;;;5036555;28;19913;-79
2022/12/11 03:12:33;;;;;;;;;;;;;;;;;;5032405;28;20292;-78
2022/12/11 03:15:20;;;;;;;;;;;;;;;;;;5050141;28;19913;-79
2022/12/11 03:18:06;;;;;;;;;;;;;;;;;;5043892;28;19928;-78
2022/12/11 03:20:53;;;;;;;;;;;;;;;;;;5041155;28;20280;-79
2022/12/11 03:23:39;;;;;;;;;;;;;;;;;;5037015;28;19924;-78
2022/12/11 03:26:26;;;;;;;;;;;;;;;;;;5038680;28;19925;-79
2022/12/11 03:29:12;;;;;;;;;;;;;;;;;;5033414;28;20427;-79
2022/12/11 03:31:59;;;;;;;;;;;;;;;;;;5046115;28;19913;-80
2022/12/11 03:34:45;;;;;;;;;;;;;;;;;;5033258;28;20482;-79
2022/12/11 03:37:32;;;;;;;;;;;;;;;;;;5041008;28;19924;-79
2022/12/11 03:40:18;;;;;;;;;;;;;;;;;;5046334;28;19909;-78
2022/12/11 03:43:05;;;;;;;;;;;;;;;;;;5045650;28;19916;-78
2022/12/11 03:45:52;;;;;;;;;;;;;;;;;;5049048;28;20384;-79
2022/12/11 03:48:39;;;;;;;;;;;;;;;;;;5042702;28;19917;-80
2022/12/11 03:51:25;;;;;;;;;;;;;;;;;;5034330;28;20540;-81
2022/12/11 03:54:12;;;;;;;;;;;;;;;;;;5034767;28;19919;-80
2022/12/11 03:56:58;;;;;;;;;;;;;;;;;;5039320;28;19917;-79
2022/12/11 03:59:45;;;;;;;;;;;;;;;;;;5029642;28;19917;-79
2022/12/11 04:02:31;;;;;;;;;;;;;;;;;;5039098;28;19924;-79
2022/12/11 04:05:18;;;;;;;;;;;;;;;;;;5040402;28;19913;-79
2022/12/11 04:08:04;;;;;;;;;;;;;;;;;;5042123;28;20431;-79
2022/12/11 04:11:33;;;;;;;;;;;;;;;;;;5046420;28;19917;-79
2022/12/11 04:17:03;;;;;;;;;;;;;;;;;;5042490;28;19913;-80
2022/12/11 04:25:59;;;;;;;;;;;;;;;;;;4999219;28;19922;-80
2022/12/11 04:28:46;;;;;;;;;;;;;;;;;;5007982;28;20301;-80
2022/12/11 04:31:32;;;;;;;;;;;;;;;;;;5000753;28;20674;-80
2022/12/11 04:34:19;;;;;;;;;;;;;;;;;;4997490;28;19914;-79
2022/12/11 04:37:05;;;;;;;;;;;;;;;;;;5001433;28;20370;-79
2022/12/11 04:39:51;;;;;;;;;;;;;;;;;;4992600;28;19914;-79
2022/12/11 04:42:38;;;;;;;;;;;;;;;;;;4998322;28;19936;-78
2022/12/11 04:45:24;;;;;;;;;;;;;;;;;;5002392;28;19913;-79
2022/12/11 04:48:11;;;;;;;;;;;;;;;;;;4997214;28;19949;-79
2022/12/11 04:50:57;;;;;;;;;;;;;;;;;;4991638;28;20294;-78
2022/12/11 04:53:44;;;;;;;;;;;;;;;;;;5000184;28;19914;-78
2022/12/11 04:56:30;;;;;;;;;;;;;;;;;;4996095;28;19917;-80
2022/12/11 04:59:17;;;;;;;;;;;;;;;;;;4993681;28;19918;-79
2022/12/11 05:02:03;;;;;;;;;;;;;;;;;;4997630;28;19917;-79
2022/12/11 05:04:50;;;;;;;;;;;;;;;;;;4996161;28;19920;-79
2022/12/11 05:07:37;;;;;;;;;;;;;;;;;;5003606;28;19928;-79
2022/12/11 05:10:23;;;;;;;;;;;;;;;;;;4998947;28;19952;-79
2022/12/11 05:13:10;;;;;;;;;;;;;;;;;;5000702;28;19917;-79
2022/12/11 05:15:58;;;;;;;;;;;;;;;;;;5004846;28;19924;-79
2022/12/11 05:18:46;;;;;;;;;;;;;;;;;;4992615;28;19910;-78
2022/12/11 05:21:32;;;;;;;;;;;;;;;;;;5001596;28;19924;-80
2022/12/11 05:24:19;;;;;;;;;;;;;;;;;;5012064;28;20270;-79
2022/12/11 05:27:05;;;;;;;;;;;;;;;;;;5037347;28;19925;-78
2022/12/11 05:29:52;;;;;;;;;;;;;;;;;;5038003;28;19920;-80
2022/12/11 05:32:38;;;;;;;;;;;;;;;;;;5043086;28;19923;-79
2022/12/11 05:35:25;;;;;;;;;;;;;;;;;;5050919;28;19913;-78
2022/12/11 05:38:11;;;;;;;;;;;;;;;;;;5035521;28;19939;-78
2022/12/11 05:40:58;;;;;;;;;;;;;;;;;;5044525;28;19923;-79
2022/12/11 05:43:44;;;;;;;;;;;;;;;;;;5047336;28;19927;-78
2022/12/11 05:46:31;;;;;;;;;;;;;;;;;;5046912;28;20348;-78
2022/12/11 05:49:17;;;;;;;;;;;;;;;;;;5044031;28;20387;-78
2022/12/11 05:52:04;;;;;;;;;;;;;;;;;;5043655;28;19913;-79
2022/12/11 05:54:50;;;;;;;;;;;;;;;;;;5036189;28;19913;-79
2022/12/11 05:57:37;;;;;;;;;;;;;;;;;;5046450;28;19913;-78
2022/12/11 06:00:23;;;;;;;;;;;;;;;;;;5046412;28;19924;-79
2022/12/11 06:03:09;;;;;;;;;;;;;;;;;;5038563;28;19917;-78
2022/12/11 06:05:56;;;;;;;;;;;;;;;;;;5037632;28;19935;-77
2022/12/11 06:08:42;;;;;;;;;;;;;;;;;;5035820;28;19917;-79
2022/12/11 06:11:29;;;;;;;;;;;;;;;;;;5044477;28;20245;-80
2022/12/11 06:14:15;;;;;;;;;;;;;;;;;;5042151;28;19934;-79
2022/12/11 06:17:02;;;;;;;;;;;;;;;;;;5033972;28;19913;-78
2022/12/11 06:19:48;;;;;;;;;;;;;;;;;;5045350;28;19932;-79
2022/12/11 06:22:35;;;;;;;;;;;;;;;;;;5036205;28;20364;-79
2022/12/11 06:25:24;;;;;;;;;;;;;;;;;;5034361;28;19925;-80
2022/12/11 06:28:11;;;;;;;;;;;;;;;;;;5039913;28;19920;-80
2022/12/11 06:30:57;;;;;;;;;;;;;;;;;;5041452;28;19951;-81
2022/12/11 06:33:46;;;;;;;;;;;;;;;;;;5045279;28;20213;-80
2022/12/11 06:36:32;;;;;;;;;;;;;;;;;;5037912;28;19909;-80
2022/12/11 06:39:19;;;;;;;;;;;;;;;;;;5040047;28;20360;-80
2022/12/11 06:42:08;;;;;;;;;;;;;;;;;;5036838;28;19913;-80
2022/12/11 06:45:00;;;;;;;;;;;;;;;;;;5048026;28;19935;-80
2022/12/11 06:47:46;;;;;;;;;;;;;;;;;;5036859;28;19928;-80
2022/12/11 06:50:33;;;;;;;;;;;;;;;;;;5047408;28;19917;-80
2022/12/11 06:53:19;;;;;;;;;;;;;;;;;;5044802;28;19913;-78
2022/12/11 06:56:06;;;;;;;;;;;;;;;;;;5029430;28;19920;-80
2022/12/11 06:58:52;;;;;;;;;;;;;;;;;;5054536;28;19913;-80
2022/12/11 07:01:39;;;;;;;;;;;;;;;;;;5045768;28;19929;-80
2022/12/11 07:04:26;;;;;;;;;;;;;;;;;;5044734;28;20296;-79
2022/12/11 07:07:12;;;;;;;;;;;;;;;;;;5060401;28;19905;-80
2022/12/11 07:09:59;;;;;;;;;;;;;;;;;;5069126;28;19913;-80
2022/12/11 07:12:45;;;;;;;;;;;;;;;;;;5051116;28;19921;-82
2022/12/11 07:15:32;;;;;;;;;;;;;;;;;;5040993;28;19909;-79
2022/12/11 07:18:18;;;;;;;;;;;;;;;;;;5056928;28;20442;-79
2022/12/11 07:21:05;;;;;;;;;;;;;;;;;;5055223;28;19908;-80
2022/12/11 07:23:51;;;;;;;;;;;;;;;;;;5035787;28;19923;-75
2022/12/11 07:26:38;;;;;;;;;;;;;;;;;;5042869;28;19917;-77
2022/12/11 07:29:25;;;;;;;;;;;;;;;;;;5043686;28;19928;-76
2022/12/11 07:32:11;;;;;;;;;;;;;;;;;;5052058;28;19909;-76
2022/12/11 07:34:58;;;;;;;;;;;;;;;;;;5034441;28;19917;-78
2022/12/11 07:37:44;;;;;;;;;;;;;;;;;;5042407;28;20380;-76
2022/12/11 07:40:31;;;;;;;;;;;;;;;;;;5041998;28;20394;-77
2022/12/11 07:43:17;;;;;;;;;;;;;;;;;;5027902;28;19917;-77
2022/12/11 07:46:04;;;;;;;;;;;;;;;;;;5040672;28;19919;-76
2022/12/11 07:48:50;;;;;;;;;;;;;;;;;;5047571;28;19923;-77
2022/12/11 07:51:37;;;;;;;;;;;;;;;;;;5042208;28;19913;-77
2022/12/11 07:54:23;;;;;;;;;;;;;;;;;;5041972;28;19917;-80
2022/12/11 07:57:10;;;;;;;;;;;;;;;;;;5043062;28;19919;-78
2022/12/11 07:59:56;;;;;;;;;;;;;;;;;;5045633;28;19916;-80
2022/12/11 08:02:43;;;;;;;;;;;;;;;;;;5045205;28;20705;-81
2022/12/11 08:05:29;;;;;;;;;;;;;;;;;;5033563;28;19931;-82
2022/12/11 08:08:16;;;;;;;;;;;;;;;;;;5045499;28;19967;-81
2022/12/11 08:11:03;;;;;;;;;;;;;;;;;;5047671;28;19913;-81
2022/12/11 08:13:49;;;;;;;;;;;;;;;;;;5045490;28;19917;-82
2022/12/11 08:16:36;;;;;;;;;;;;;;;;;;5044870;28;19909;-80
2022/12/11 08:19:23;;;;;;;;;;;;;;;;;;5041236;28;19920;-80
2022/12/11 08:22:09;;;;;;;;;;;;;;;;;;5042735;28;19924;-81
2022/12/11 08:24:56;;;;;;;;;;;;;;;;;;5043541;28;19925;-80
2022/12/11 08:27:42;;;;;;;;;;;;;;;;;;5045758;28;19925;-81
2022/12/11 08:30:29;;;;;;;;;;;;;;;;;;5045431;28;19923;-80
2022/12/11 08:33:15;;;;;;;;;;;;;;;;;;5044406;28;19921;-80
2022/12/11 08:36:02;;;;;;;;;;;;;;;;;;5042255;28;19927;-80
2022/12/11 08:38:49;;;;;;;;;;;;;;;;;;5046642;28;19920;-81
2022/12/11 08:41:36;;;;;;;;;;;;;;;;;;5046427;28;20590;-80
2022/12/11 08:44:25;;;;;;;;;;;;;;;;;;5045512;28;20375;-81
2022/12/11 08:47:14;;;;;;;;;;;;;;;;;;5043707;28;19932;-80
2022/12/11 08:50:00;;;;;;;;;;;;;;;;;;5040754;28;19924;-80
2022/12/11 08:52:47;;;;;;;;;;;;;;;;;;5042445;28;19916;-80
2022/12/11 08:55:33;;;;;;;;;;;;;;;;;;5044178;28;19913;-79
2022/12/11 08:58:20;;;;;;;;;;;;;;;;;;5041123;28;19909;-81
2022/12/11 09:01:06;;;;;;;;;;;;;;;;;;5042752;28;19920;-80
2022/12/11 09:03:53;;;;;;;;;;;;;;;;;;5031228;28;20296;-75
2022/12/11 09:06:39;;;;;;;;;;;;;;;;;;5037078;28;19921;-80
2022/12/11 09:09:26;;;;;;;;;;;;;;;;;;5037360;28;19920;-81
2022/12/11 09:12:12;;;;;;;;;;;;;;;;;;5040360;28;19913;-82
2022/12/11 09:14:59;;;;;;;;;;;;;;;;;;5044915;28;20369;-83
2022/12/11 09:17:45;;;;;;;;;;;;;;;;;;5044970;28;19917;-83
2022/12/11 09:20:32;;;;;;;;;;;;;;;;;;5041935;28;19920;-79
2022/12/11 09:23:19;;;;;;;;;;;;;;;;;;5045671;28;19919;-76
2022/12/11 09:26:05;;;;;;;;;;;;;;;;;;5045162;28;19924;-76
2022/12/11 09:28:52;;;;;;;;;;;;;;;;;;5046437;28;19913;-78
2022/12/11 09:31:39;;;;;;;;;;;;;;;;;;5046779;28;19920;-75
2022/12/11 09:34:25;;;;;;;;;;;;;;;;;;5054624;28;19918;-77
2022/12/11 09:37:12;;;;;;;;;;;;;;;;;;5043151;28;20443;-75
2022/12/11 09:39:59;;;;;;;;;;;;;;;;;;5040712;28;20299;-78
2022/12/11 09:42:45;;;;;;;;;;;;;;;;;;5035896;28;19917;-78
2022/12/11 09:45:32;;;;;;;;;;;;;;;;;;5042807;28;19916;-77
2022/12/11 09:48:19;;;;;;;;;;;;;;;;;;5035292;28;19924;-76
2022/12/11 09:51:05;;;;;;;;;;;;;;;;;;5028620;28;19917;-76
2022/12/11 09:53:52;;;;;;;;;;;;;;;;;;5039713;28;20031;-77
2022/12/11 09:56:38;;;;;;;;;;;;;;;;;;5035100;28;19913;-76
2022/12/11 09:59:25;;;;;;;;;;;;;;;;;;5025837;28;19920;-77
2022/12/11 10:02:11;;;;;;;;;;;;;;;;;;5044942;28;19941;-77
2022/12/11 10:04:58;;;;;;;;;;;;;;;;;;5045805;28;20380;-77
2022/12/11 10:07:45;;;;;;;;;;;;;;;;;;5035798;28;19921;-76
2022/12/11 10:10:31;;;;;;;;;;;;;;;;;;5029552;28;19917;-76
2022/12/11 10:13:18;;;;;;;;;;;;;;;;;;5039477;28;19913;-76
2022/12/11 10:16:04;;;;;;;;;;;;;;;;;;5030495;28;20344;-76
2022/12/11 10:18:51;;;;;;;;;;;;;;;;;;5031965;28;19909;-75
2022/12/11 10:21:38;;;;;;;;;;;;;;;;;;5045890;28;19916;-75
2022/12/11 10:24:25;;;;;;;;;;;;;;;;;;5044770;28;19925;-75
2022/12/11 10:27:11;;;;;;;;;;;;;;;;;;5026411;28;20478;-77
2022/12/11 10:29:58;;;;;;;;;;;;;;;;;;5030733;28;19919;-76
2022/12/11 10:32:44;;;;;;;;;;;;;;;;;;5038408;28;19915;-76
2022/12/11 10:35:31;;;;;;;;;;;;;;;;;;5042533;28;19917;-76
2022/12/11 10:38:18;;;;;;;;;;;;;;;;;;5042827;28;19924;-77
2022/12/11 10:41:04;;;;;;;;;;;;;;;;;;5030974;28;20320;-77
2022/12/11 10:43:51;;;;;;;;;;;;;;;;;;5034005;28;19963;-77
2022/12/11 10:46:37;;;;;;;;;;;;;;;;;;5038997;28;19928;-77
2022/12/11 10:49:24;;;;;;;;;;;;;;;;;;5035178;28;19916;-76
2022/12/11 10:52:11;;;;;;;;;;;;;;;;;;5042151;28;19916;-75
2022/12/11 10:54:57;;;;;;;;;;;;;;;;;;5039647;28;20303;-75
2022/12/11 10:57:44;;;;;;;;;;;;;;;;;;5037908;28;19912;-75
2022/12/11 11:00:31;;;;;;;;;;;;;;;;;;5040384;28;19913;-77
2022/12/11 11:03:17;;;;;;;;;;;;;;;;;;5044655;28;19921;-77
2022/12/11 11:06:04;;;;;;;;;;;;;;;;;;5029604;28;19909;-77
2022/12/11 11:08:50;;;;;;;;;;;;;;;;;;5033222;28;19925;-77
2022/12/11 11:11:37;;;;;;;;;;;;;;;;;;5042794;28;20368;-76
2022/12/11 11:14:23;;;;;;;;;;;;;;;;;;5032944;28;19917;-77
2022/12/11 11:17:10;;;;;;;;;;;;;;;;;;5038249;28;19919;-76
2022/12/11 11:19:56;;;;;;;;;;;;;;;;;;5035620;28;19913;-76
2022/12/11 11:22:43;;;;;;;;;;;;;;;;;;5042456;28;20373;-77
2022/12/11 11:25:29;;;;;;;;;;;;;;;;;;5045734;28;19921;-76
2022/12/11 11:28:16;;;;;;;;;;;;;;;;;;5033763;28;19929;-76
2022/12/11 11:31:02;;;;;;;;;;;;;;;;;;5031430;28;19917;-76
2022/12/11 11:33:49;;;;;;;;;;;;;;;;;;5038349;28;20303;-74
2022/12/11 11:36:35;;;;;;;;;;;;;;;;;;5047710;28;19923;-76
2022/12/11 11:39:22;;;;;;;;;;;;;;;;;;5037865;28;19916;-76
2022/12/11 11:42:08;;;;;;;;;;;;;;;;;;5045250;28;19913;-77
2022/12/11 11:44:55;;;;;;;;;;;;;;;;;;5043332;28;19917;-77
2022/12/11 11:47:41;;;;;;;;;;;;;;;;;;5050236;28;19928;-77
2022/12/11 11:50:28;;;;;;;;;;;;;;;;;;5036810;28;19923;-76
2022/12/11 11:53:15;;;;;;;;;;;;;;;;;;5033880;28;19916;-75
2022/12/11 11:56:01;;;;;;;;;;;;;;;;;;5039752;28;19932;-75
2022/12/11 11:58:48;;;;;;;;;;;;;;;;;;5038876;28;19917;-76
2022/12/11 12:01:34;;;;;;;;;;;;;;;;;;5044426;28;19913;-75
2022/12/11 12:04:21;;;;;;;;;;;;;;;;;;5042238;28;19928;-75
2022/12/11 12:07:07;;;;;;;;;;;;;;;;;;5038602;28;19920;-75
2022/12/11 12:09:54;;;;;;;;;;;;;;;;;;5041010;28;19916;-75
2022/12/11 12:12:40;;;;;;;;;;;;;;;;;;5036220;28;19916;-76
2022/12/11 12:15:27;;;;;;;;;;;;;;;;;;5043816;28;19924;-76
2022/12/11 12:18:13;;;;;;;;;;;;;;;;;;5044892;28;19913;-77
2022/12/11 12:21:00;;;;;;;;;;;;;;;;;;5040512;28;19916;-75
2022/12/11 12:23:46;;;;;;;;;;;;;;;;;;5039898;28;19921;-75
2022/12/11 12:26:33;;;;;;;;;;;;;;;;;;5043927;28;20011;-76
2022/12/11 12:29:19;;;;;;;;;;;;;;;;;;5042282;28;20364;-76
2022/12/11 12:32:06;;;;;;;;;;;;;;;;;;5042730;28;19931;-76
2022/12/11 12:34:52;;;;;;;;;;;;;;;;;;5046091;28;19916;-74
2022/12/11 12:37:45;;;;;;;;;;;;;;;;;;5042156;28;19931;-77
2022/12/11 12:40:31;;;;;;;;;;;;;;;;;;5023453;28;19935;-75
2022/12/11 12:43:18;;;;;;;;;;;;;;;;;;5046802;28;19920;-77
2022/12/11 12:46:04;;;;;;;;;;;;;;;;;;5035235;28;20307;-77
2022/12/11 12:48:51;;;;;;;;;;;;;;;;;;5041903;28;19928;-75
2022/12/11 12:51:37;;;;;;;;;;;;;;;;;;5032514;28;19920;-74
2022/12/11 12:54:24;;;;;;;;;;;;;;;;;;5044996;28;19913;-77
2022/12/11 12:57:10;;;;;;;;;;;;;;;;;;5029265;28;19920;-77
2022/12/11 12:59:57;;;;;;;;;;;;;;;;;;5030141;28;19917;-75
2022/12/11 13:02:43;;;;;;;;;;;;;;;;;;5038950;28;19912;-74
2022/12/11 13:05:30;;;;;;;;;;;;;;;;;;5047430;28;19913;-77
2022/12/11 13:08:16;;;;;;;;;;;;;;;;;;5046159;28;19925;-76
2022/12/11 13:11:03;;;;;;;;;;;;;;;;;;5040618;28;19935;-77
2022/12/11 13:13:49;;;;;;;;;;;;;;;;;;5042238;28;19908;-76
2022/12/11 13:16:36;;;;;;;;;;;;;;;;;;5042692;28;19912;-75
2022/12/11 13:19:22;;;;;;;;;;;;;;;;;;5044098;28;19916;-75
2022/12/11 13:22:09;;;;;;;;;;;;;;;;;;5043906;28;19924;-76
2022/12/11 13:24:56;;;;;;;;;;;;;;;;;;5039140;28;19925;-77
2022/12/11 13:27:42;;;;;;;;;;;;;;;;;;5041136;28;19925;-76
2022/12/11 13:30:29;;;;;;;;;;;;;;;;;;5040738;28;19912;-75
2022/12/11 13:33:15;;;;;;;;;;;;;;;;;;5043594;28;20284;-77
2022/12/11 13:36:02;;;;;;;;;;;;;;;;;;5037391;28;19909;-76
2022/12/11 13:38:48;;;;;;;;;;;;;;;;;;5032275;28;19917;-75
2022/12/11 13:41:36;;;;;;;;;;;;;;;;;;5043489;28;19936;-76
2022/12/11 13:44:22;;;;;;;;;;;;;;;;;;5027190;28;20304;-79
2022/12/11 13:47:09;;;;;;;;;;;;;;;;;;5045885;28;19944;-78
2022/12/11 13:49:55;;;;;;;;;;;;;;;;;;5032999;28;19924;-77
2022/12/11 13:52:42;;;;;;;;;;;;;;;;;;5031962;28;19929;-77
2022/12/11 13:55:28;;;;;;;;;;;;;;;;;;5029816;28;19909;-80
2022/12/11 13:58:15;;;;;;;;;;;;;;;;;;5034099;28;19913;-78
2022/12/11 14:01:01;;;;;;;;;;;;;;;;;;5020566;28;20632;-77
2022/12/11 14:03:48;;;;;;;;;;;;;;;;;;5038320;28;19923;-78
2022/12/11 14:06:34;;;;;;;;;;;;;;;;;;5036803;28;19913;-78
2022/12/11 14:09:21;;;;;;;;;;;;;;;;;;5035334;28;19916;-78
2022/12/11 14:12:09;;;;;;;;;;;;;;;;;;5042128;28;19917;-78
2022/12/11 14:14:55;;;;;;;;;;;;;;;;;;5045120;28;19920;-78
2022/12/11 14:17:42;;;;;;;;;;;;;;;;;;5046370;28;19924;-77
2022/12/11 14:20:28;;;;;;;;;;;;;;;;;;5042298;28;20280;-80
2022/12/11 14:23:15;;;;;;;;;;;;;;;;;;5035795;28;19942;-79
2022/12/11 14:26:01;;;;;;;;;;;;;;;;;;5039452;28;20000;-83
2022/12/11 14:28:48;;;;;;;;;;;;;;;;;;5041946;28;20281;-76
2022/12/11 14:31:37;;;;;;;;;;;;;;;;;;5039772;28;19917;-77
2022/12/11 14:34:23;;;;;;;;;;;;;;;;;;5040090;28;20280;-82
2022/12/11 14:37:10;;;;;;;;;;;;;;;;;;5041603;28;19920;-82
2022/12/11 14:39:56;;;;;;;;;;;;;;;;;;5039001;28;19928;-79
2022/12/11 14:42:43;;;;;;;;;;;;;;;;;;5027391;28;19909;-80
2022/12/11 14:45:29;;;;;;;;;;;;;;;;;;5040284;28;19913;-77
2022/12/11 14:48:16;;;;;;;;;;;;;;;;;;5022005;28;19927;-79
2022/12/11 14:51:02;;;;;;;;;;;;;;;;;;5045453;28;19917;-78
2022/12/11 14:53:49;;;;;;;;;;;;;;;;;;5034582;28;19921;-77
2022/12/11 14:56:36;;;;;;;;;;;;;;;;;;5045400;28;19913;-77
2022/12/11 14:59:22;;;;;;;;;;;;;;;;;;5044863;28;20281;-80
2022/12/11 15:02:09;;;;;;;;;;;;;;;;;;5025142;28;19924;-78
2022/12/11 15:04:55;;;;;;;;;;;;;;;;;;5041993;28;19927;-78
2022/12/11 15:07:43;;;;;;;;;;;;;;;;;;5042755;28;19929;-78
2022/12/11 15:10:30;;;;;;;;;;;;;;;;;;5036170;28;19923;-79
2022/12/11 15:13:16;;;;;;;;;;;;;;;;;;5048441;28;19908;-79
2022/12/11 15:16:03;;;;;;;;;;;;;;;;;;5050358;28;20375;-78
2022/12/11 15:18:49;;;;;;;;;;;;;;;;;;5042307;28;20379;-78
2022/12/11 15:21:36;;;;;;;;;;;;;;;;;;5046186;28;19921;-78
2022/12/11 15:24:23;;;;;;;;;;;;;;;;;;5052643;28;20307;-80
2022/12/11 15:27:09;;;;;;;;;;;;;;;;;;5038408;28;19923;-83
2022/12/11 15:29:56;;;;;;;;;;;;;;;;;;5042661;28;19917;-80
2022/12/11 15:32:42;;;;;;;;;;;;;;;;;;5039607;28;19920;-79
2022/12/11 15:35:29;;;;;;;;;;;;;;;;;;5050148;28;20430;-78
2022/12/11 15:38:15;;;;;;;;;;;;;;;;;;5051291;28;19912;-81
2022/12/11 15:41:02;;;;;;;;;;;;;;;;;;5040145;28;19929;-81
2022/12/11 15:43:49;;;;;;;;;;;;;;;;;;5061481;28;19923;-85
2022/12/11 15:46:35;;;;;;;;;;;;;;;;;;5059344;28;19909;-80
2022/12/11 15:49:23;;;;;;;;;;;;;;;;;;5036152;28;19925;-85
2022/12/11 15:52:09;;;;;;;;;;;;;;;;;;5050231;28;19909;-87
2022/12/11 15:54:56;;;;;;;;;;;;;;;;;;5066146;28;19913;-90
2022/12/11 15:57:43;;;;;;;;;;;;;;;;;;5056868;28;19915;-83
2022/12/11 16:00:29;;;;;;;;;;;;;;;;;;5037810;28;19913;-85
2022/12/11 16:03:16;;;;;;;;;;;;;;;;;;5047773;28;19913;-83
2022/12/11 16:06:03;;;;;;;;;;;;;;;;;;5048835;28;19912;-84
2022/12/11 16:08:49;;;;;;;;;;;;;;;;;;5030364;28;19924;-84
2022/12/11 16:11:36;;;;;;;;;;;;;;;;;;5045343;28;19923;-85
2022/12/11 16:14:22;;;;;;;;;;;;;;;;;;5050817;28;20321;-83
2022/12/11 16:17:09;;;;;;;;;;;;;;;;;;5041732;28;19944;-81
2022/12/11 16:19:55;;;;;;;;;;;;;;;;;;5039513;28;19921;-79
2022/12/11 16:22:43;;;;;;;;;;;;;;;;;;5038871;28;19940;-84
2022/12/11 16:25:30;;;;;;;;;;;;;;;;;;5021109;28;19925;-80
2022/12/11 16:28:17;;;;;;;;;;;;;;;;;;5037760;28;20349;-83
2022/12/11 16:31:03;;;;;;;;;;;;;;;;;;5045443;28;19919;-75
2022/12/11 16:33:50;;;;;;;;;;;;;;;;;;5039195;28;19913;-74
2022/12/11 16:36:36;;;;;;;;;;;;;;;;;;5033184;28;19925;-76
2022/12/11 16:39:23;;;;;;;;;;;;;;;;;;5044617;28;20383;-76
2022/12/11 16:42:15;;;;;;;;;;;;;;;;;;5047151;28;19913;-74
2022/12/11 16:45:02;;;;;;;;;;;;;;;;;;5048177;28;19924;-77
2022/12/11 16:47:48;;;;;;;;;;;;;;;;;;5049334;28;19916;-77
2022/12/11 16:50:35;;;;;;;;;;;;;;;;;;5047328;28;19916;-79
2022/12/11 16:53:21;;;;;;;;;;;;;;;;;;5036105;28;20319;-79
2022/12/11 16:56:08;;;;;;;;;;;;;;;;;;5040409;28;19923;-80
2022/12/11 16:58:55;;;;;;;;;;;;;;;;;;5038808;28;19919;-79
2022/12/11 17:01:41;;;;;;;;;;;;;;;;;;5042840;28;19924;-78
2022/12/11 17:04:28;;;;;;;;;;;;;;;;;;5032017;28;19928;-80
2022/12/11 17:07:14;;;;;;;;;;;;;;;;;;5028331;28;19920;-79
2022/12/11 17:10:02;;;;;;;;;;;;;;;;;;5040429;28;19936;-78
2022/12/11 17:12:48;;;;;;;;;;;;;;;;;;5034897;28;19924;-77
2022/12/11 17:15:35;;;;;;;;;;;;;;;;;;5035708;28;19921;-77
2022/12/11 17:18:21;;;;;;;;;;;;;;;;;;5037711;28;19916;-79
2022/12/11 17:21:08;;;;;;;;;;;;;;;;;;5046059;28;19927;-79
2022/12/11 17:23:55;;;;;;;;;;;;;;;;;;5045299;28;19932;-78
2022/12/11 17:26:41;;;;;;;;;;;;;;;;;;5040176;28;19923;-77
2022/12/11 17:29:28;;;;;;;;;;;;;;;;;;5041500;28;20308;-76
2022/12/11 17:32:16;;;;;;;;;;;;;;;;;;5041976;28;19917;-81
2022/12/11 17:35:02;;;;;;;;;;;;;;;;;;5041642;28;19916;-83
2022/12/11 17:37:49;;;;;;;;;;;;;;;;;;5030164;28;19919;-85
2022/12/11 17:40:35;;;;;;;;;;;;;;;;;;5048251;28;19916;-88
2022/12/11 17:43:22;;;;;;;;;;;;;;;;;;5042753;28;19924;-83
2022/12/11 17:46:08;;;;;;;;;;;;;;;;;;5049804;28;19913;-85
2022/12/11 17:48:58;;;;;;;;;;;;;;;;;;5033338;28;19931;-83
2022/12/11 17:51:44;;;;;;;;;;;;;;;;;;5048685;28;19921;-81
2022/12/11 17:54:31;;;;;;;;;;;;;;;;;;5043701;28;19912;-81
2022/12/11 17:57:17;;;;;;;;;;;;;;;;;;5045834;28;20046;-81
2022/12/11 18:00:04;;;;;;;;;;;;;;;;;;5041092;28;19920;-80
2022/12/11 18:02:50;;;;;;;;;;;;;;;;;;5039689;28;19927;-79
2022/12/11 18:05:37;;;;;;;;;;;;;;;;;;5039132;28;20094;-79
2022/12/11 18:08:28;;;;;;;;;;;;;;;;;;5043673;28;19925;-79
2022/12/11 18:11:15;;;;;;;;;;;;;;;;;;5048395;28;19909;-79
2022/12/11 18:14:01;;;;;;;;;;;;;;;;;;5041130;28;19913;-79
2022/12/11 18:16:48;;;;;;;;;;;;;;;;;;5042522;28;19943;-78
2022/12/11 18:19:34;;;;;;;;;;;;;;;;;;5027035;28;19919;-78
2022/12/11 18:22:21;;;;;;;;;;;;;;;;;;5040738;28;19913;-79
2022/12/11 18:25:09;;;;;;;;;;;;;;;;;;5044342;28;19933;-80
2022/12/11 18:27:56;;;;;;;;;;;;;;;;;;5042569;28;19932;-79
2022/12/11 18:30:43;;;;;;;;;;;;;;;;;;5039204;28;19917;-80
2022/12/11 18:33:29;;;;;;;;;;;;;;;;;;5045167;28;19920;-79
2022/12/11 18:36:16;;;;;;;;;;;;;;;;;;5046523;28;19920;-80
2022/12/11 18:39:02;;;;;;;;;;;;;;;;;;5030364;28;19913;-80
2022/12/11 18:41:49;;;;;;;;;;;;;;;;;;5032499;28;20353;-80
2022/12/11 18:44:36;;;;;;;;;;;;;;;;;;5045825;28;19915;-79
2022/12/11 18:47:23;;;;;;;;;;;;;;;;;;5029933;28;19917;-79
2022/12/11 18:50:09;;;;;;;;;;;;;;;;;;5045226;28;20288;-80
2022/12/11 18:52:55;;;;;;;;;;;;;;;;;;5042931;28;20032;-80
2022/12/11 18:55:42;;;;;;;;;;;;;;;;;;5036836;28;19924;-79
2022/12/11 18:58:29;;;;;;;;;;;;;;;;;;5036714;28;19939;-81
2022/12/11 19:01:15;;;;;;;;;;;;;;;;;;5036202;28;20369;-78
2022/12/11 19:04:02;;;;;;;;;;;;;;;;;;5038324;28;19913;-79
2022/12/11 19:06:48;;;;;;;;;;;;;;;;;;5021084;28;19921;-80